createdAt,value
2019-03-12T00:00:49.271Z,21.98
2019-03-12T00:03:52.851Z,21.98
2019-03-12T00:06:56.316Z,21.96
2019-03-12T00:09:59.821Z,21.96
2019-03-12T00:13:04.349Z,21.96
2019-03-12T00:16:07.841Z,21.96
2019-03-12T00:19:11.376Z,21.96
2019-03-12T00:22:15.875Z,21.95
2019-03-12T00:25:21.420Z,21.95
2019-03-12T00:28:24.841Z,21.95
2019-03-12T00:31:28.277Z,21.95
2019-03-12T00:34:31.728Z,21.94
2019-03-12T00:37:35.246Z,21.94
2019-03-12T00:40:39.746Z,21.93
2019-03-12T00:43:43.242Z,21.94
2019-03-12T00:46:46.772Z,21.92
2019-03-12T00:49:50.285Z,21.92
2019-03-12T00:52:55.819Z,21.92
2019-03-12T00:55:59.303Z,21.92
2019-03-12T00:59:02.898Z,21.90
2019-03-12T01:02:06.519Z,21.91
2019-03-12T01:05:10.017Z,21.92
2019-03-12T01:08:13.504Z,21.92
2019-03-12T01:11:17.006Z,21.90
2019-03-12T01:14:20.520Z,21.90
2019-03-12T01:17:24.012Z,21.90
2019-03-12T01:20:27.508Z,21.89
2019-03-12T01:23:31.023Z,21.89
2019-03-12T01:26:34.845Z,21.87
2019-03-12T01:29:38.532Z,21.88
2019-03-12T01:32:41.949Z,21.87
2019-03-12T01:35:45.424Z,21.86
2019-03-12T01:38:48.912Z,21.84
2019-03-12T01:41:52.356Z,21.85
2019-03-12T01:44:55.825Z,21.85
2019-03-12T01:48:00.498Z,21.84
2019-03-12T01:51:03.956Z,21.86
2019-03-12T01:54:07.481Z,21.82
2019-03-12T01:57:10.975Z,21.83
2019-03-12T02:00:16.099Z,21.83
2019-03-12T02:03:19.662Z,21.82
2019-03-12T02:06:23.097Z,21.83
2019-03-12T02:09:26.599Z,21.81
2019-03-12T02:12:31.131Z,21.81
2019-03-12T02:15:34.640Z,21.80
2019-03-12T02:18:38.132Z,21.80
2019-03-12T02:21:41.635Z,21.79
2019-03-12T02:24:52.554Z,21.80
2019-03-12T02:27:51.501Z,21.80
2019-03-12T02:30:54.998Z,21.80
2019-03-12T02:33:58.518Z,21.79
2019-03-12T02:37:02.024Z,21.78
2019-03-12T02:40:07.047Z,21.78
2019-03-12T02:46:19.899Z,21.78
2019-03-12T02:49:23.322Z,21.78
2019-03-12T02:52:27.905Z,21.76
2019-03-12T02:55:31.399Z,21.78
2019-03-12T02:58:35.943Z,21.78
2019-03-12T03:01:40.460Z,21.78
2019-03-12T03:04:43.986Z,21.77
2019-03-12T03:07:53.839Z,21.76
2019-03-12T03:10:57.322Z,21.76
2019-03-12T03:14:00.829Z,21.75
2019-03-12T03:17:04.826Z,21.75
2019-03-12T03:20:08.834Z,21.75
2019-03-12T03:23:12.345Z,21.75
2019-03-12T03:26:16.870Z,21.75
2019-03-12T03:29:20.318Z,21.76
2019-03-12T03:32:23.872Z,21.75
2019-03-12T03:35:27.303Z,21.74
2019-03-12T03:38:30.773Z,21.75
2019-03-12T03:41:35.926Z,21.74
2019-03-12T03:44:39.470Z,21.75
2019-03-12T03:47:42.952Z,21.74
2019-03-12T03:50:46.422Z,21.74
2019-03-12T03:53:49.924Z,21.73
2019-03-12T03:56:53.507Z,21.73
2019-03-12T03:59:58.046Z,21.73
2019-03-12T04:03:01.555Z,21.73
2019-03-12T04:06:05.085Z,21.74
2019-03-12T04:09:08.552Z,21.73
2019-03-12T04:12:12.041Z,21.73
2019-03-12T04:15:15.573Z,21.72
2019-03-12T04:18:19.073Z,21.73
2019-03-12T04:21:22.698Z,21.73
2019-03-12T04:24:26.268Z,21.73
2019-03-12T04:27:29.753Z,21.71
2019-03-12T04:30:33.260Z,21.71
2019-03-12T04:34:14.142Z,21.72
2019-03-12T04:37:17.741Z,21.71
2019-03-12T04:40:21.257Z,21.70
2019-03-12T04:43:24.756Z,21.71
2019-03-12T04:46:28.243Z,21.70
2019-03-12T04:49:31.776Z,21.70
2019-03-12T04:52:35.236Z,21.70
2019-03-12T04:55:38.751Z,21.69
2019-03-12T04:58:42.270Z,21.69
2019-03-12T05:01:45.753Z,21.68
2019-03-12T05:04:49.445Z,21.69
2019-03-12T05:07:52.974Z,21.69
2019-03-12T05:10:56.467Z,21.68
2019-03-12T05:14:24.906Z,21.68
2019-03-12T05:17:31.816Z,21.68
2019-03-12T05:20:35.441Z,21.68
2019-03-12T05:23:38.944Z,21.68
2019-03-12T05:26:43.458Z,21.67
2019-03-12T05:29:46.961Z,21.66
2019-03-12T05:32:50.463Z,21.67
2019-03-12T05:35:53.969Z,21.66
2019-03-12T05:38:57.475Z,21.67
2019-03-12T05:42:00.889Z,21.67
2019-03-12T05:45:04.518Z,21.67
2019-03-12T05:48:07.963Z,21.67
2019-03-12T05:51:11.465Z,21.68
2019-03-12T05:54:16.008Z,21.67
2019-03-12T05:57:19.515Z,21.68
2019-03-12T06:00:24.284Z,21.66
2019-03-12T06:03:27.736Z,21.67
2019-03-12T06:06:31.224Z,21.67
2019-03-12T06:09:34.740Z,21.69
2019-03-12T06:12:38.242Z,21.67
2019-03-12T06:15:41.732Z,21.68
2019-03-12T06:18:45.228Z,21.68
2019-03-12T06:21:48.737Z,21.67
2019-03-12T06:24:52.263Z,21.67
2019-03-12T06:27:55.842Z,21.68
2019-03-12T06:31:17.438Z,21.67
2019-03-12T06:34:40.820Z,21.67
2019-03-12T06:38:06.126Z,21.66
2019-03-12T06:41:18.870Z,21.68
2019-03-12T06:44:40.348Z,21.67
2019-03-12T06:47:59.151Z,21.68
2019-03-12T06:51:11.660Z,21.67
2019-03-12T06:54:34.204Z,21.66
2019-03-12T06:58:16.740Z,21.67
2019-03-12T07:01:39.277Z,21.67
2019-03-12T07:04:56.125Z,21.67
2019-03-12T07:08:09.310Z,21.68
2019-03-12T07:11:30.508Z,21.67
2019-03-12T07:14:56.065Z,21.68
2019-03-12T07:18:10.890Z,21.66
2019-03-12T07:21:33.467Z,21.67
2019-03-12T07:25:02.041Z,21.66
2019-03-12T07:28:12.617Z,21.67
2019-03-12T07:31:28.992Z,21.66
2019-03-12T07:34:44.930Z,21.66
2019-03-12T07:38:07.465Z,21.65
2019-03-12T07:41:30.383Z,21.66
2019-03-12T07:44:47.852Z,21.67
2019-03-12T07:48:19.283Z,21.67
2019-03-12T07:51:40.537Z,21.67
2019-03-12T07:55:01.123Z,21.67
2019-03-12T07:58:14.244Z,21.68
2019-03-12T08:01:36.903Z,21.67
2019-03-12T08:04:51.014Z,21.68
2019-03-12T08:08:19.718Z,21.68
2019-03-12T08:11:55.650Z,21.66
2019-03-12T08:15:22.595Z,21.67
2019-03-12T08:18:35.713Z,21.67
2019-03-12T08:22:04.087Z,21.72
2019-03-12T08:25:25.586Z,21.74
2019-03-12T08:28:38.519Z,21.72
2019-03-12T08:32:13.379Z,21.72
2019-03-12T08:35:35.915Z,21.73
2019-03-12T08:38:49.855Z,21.75
2019-03-12T08:42:09.116Z,21.77
2019-03-12T08:45:38.310Z,21.80
2019-03-12T08:48:59.917Z,21.82
2019-03-12T08:52:12.856Z,21.83
2019-03-12T08:55:34.099Z,21.84
2019-03-12T08:59:02.515Z,21.86
2019-03-12T09:02:37.063Z,21.87
2019-03-12T09:06:08.755Z,21.89
2019-03-12T09:09:43.425Z,21.88
2019-03-12T09:13:08.937Z,21.87
2019-03-12T09:16:29.200Z,21.91
2019-03-12T09:19:52.764Z,21.92
2019-03-12T09:23:06.164Z,21.93
2019-03-12T09:26:27.650Z,21.92
2019-03-12T09:29:53.098Z,21.93
2019-03-12T09:33:07.908Z,21.94
2019-03-12T09:36:24.411Z,21.98
2019-03-12T09:39:46.970Z,21.98
2019-03-12T09:43:03.591Z,21.99
2019-03-12T09:46:32.994Z,22.01
2019-03-12T09:49:54.118Z,22.00
2019-03-12T09:53:03.045Z,22.03
2019-03-12T09:56:13.179Z,22.03
2019-03-12T09:59:32.776Z,22.04
2019-03-12T10:02:46.507Z,22.05
2019-03-12T10:06:04.912Z,22.07
2019-03-12T10:09:18.798Z,22.07
2019-03-12T10:12:45.561Z,22.09
2019-03-12T10:16:26.696Z,22.10
2019-03-12T10:19:50.406Z,22.10
2019-03-12T10:23:00.545Z,22.12
2019-03-12T10:26:12.086Z,22.11
2019-03-12T10:29:46.792Z,22.13
2019-03-12T10:33:01.914Z,22.13
2019-03-12T10:36:25.382Z,22.13
2019-03-12T10:40:23.150Z,22.12
2019-03-12T10:43:47.914Z,22.13
2019-03-12T10:46:58.074Z,22.17
2019-03-12T10:50:02.585Z,22.18
2019-03-12T10:53:06.383Z,22.18
2019-03-12T10:56:09.814Z,22.18
2019-03-12T10:59:13.293Z,22.17
2019-03-12T11:02:16.777Z,22.20
2019-03-12T11:05:20.287Z,22.20
2019-03-12T11:08:23.778Z,22.21
2019-03-12T11:11:28.322Z,22.20
2019-03-12T11:14:31.850Z,22.21
2019-03-12T11:17:48.444Z,22.22
2019-03-12T11:20:40.774Z,22.24
2019-03-12T11:23:44.468Z,22.24
2019-03-12T11:26:48.103Z,22.26
2019-03-12T11:29:51.699Z,22.24
2019-03-12T11:32:55.388Z,22.24
2019-03-12T11:35:59.000Z,22.26
2019-03-12T11:39:04.811Z,22.27
2019-03-12T11:42:08.248Z,22.27
2019-03-12T11:45:18.645Z,22.25
2019-03-12T11:48:20.525Z,22.29
2019-03-12T11:51:24.121Z,22.29
2019-03-12T11:54:28.724Z,22.30
2019-03-12T11:57:32.362Z,22.32
2019-03-12T12:00:41.188Z,22.33
2019-03-12T12:03:44.645Z,22.33
2019-03-12T12:06:48.165Z,22.38
2019-03-12T12:09:51.676Z,22.35
2019-03-12T12:12:56.159Z,22.39
2019-03-12T12:16:00.713Z,22.40
2019-03-12T12:19:04.208Z,22.40
2019-03-12T12:22:07.697Z,22.41
2019-03-12T12:25:11.939Z,22.42
2019-03-12T12:28:15.518Z,22.43
2019-03-12T12:31:19.019Z,22.41
2019-03-12T12:34:22.649Z,22.45
2019-03-12T12:37:26.214Z,22.44
2019-03-12T12:40:29.818Z,22.44
2019-03-12T12:43:33.428Z,22.46
2019-03-12T12:46:37.083Z,22.48
2019-03-12T12:49:40.515Z,22.50
2019-03-12T12:52:44.138Z,22.49
2019-03-12T12:55:47.613Z,22.49
2019-03-12T12:58:51.128Z,22.53
2019-03-12T13:01:54.621Z,22.53
2019-03-12T13:04:58.175Z,22.56
2019-03-12T13:08:01.654Z,22.57
2019-03-12T13:11:05.125Z,22.61
2019-03-12T13:14:08.651Z,22.63
2019-03-12T13:17:12.076Z,22.67
2019-03-12T13:20:15.626Z,22.68
2019-03-12T13:23:19.173Z,22.71
2019-03-12T13:26:22.614Z,22.76
2019-03-12T13:29:26.078Z,22.77
2019-03-12T13:32:29.880Z,22.81
2019-03-12T13:35:33.507Z,22.84
2019-03-12T13:38:45.702Z,22.86
2019-03-12T13:41:42.931Z,22.87
2019-03-12T13:44:46.774Z,22.94
2019-03-12T13:47:50.338Z,22.94
2019-03-12T13:50:54.082Z,22.95
2019-03-12T13:53:57.737Z,22.98
2019-03-12T13:57:01.509Z,23.00
2019-03-12T14:00:09.030Z,23.02
2019-03-12T14:03:20.764Z,23.03
2019-03-12T14:06:24.291Z,23.06
2019-03-12T14:09:27.786Z,23.08
2019-03-12T14:12:31.341Z,23.09
2019-03-12T14:15:34.854Z,23.08
2019-03-12T14:18:39.418Z,23.08
2019-03-12T14:21:43.889Z,23.11
2019-03-12T14:24:48.582Z,23.11
2019-03-12T14:27:53.382Z,23.13
2019-03-12T14:30:58.075Z,23.16
2019-03-12T14:34:01.728Z,23.19
2019-03-12T14:37:05.638Z,23.21
2019-03-12T14:40:09.387Z,23.23
2019-03-12T14:43:13.199Z,23.27
2019-03-12T14:46:16.887Z,23.28
2019-03-12T14:49:20.623Z,23.30
2019-03-12T14:52:27.793Z,23.32
2019-03-12T14:55:31.344Z,23.34
2019-03-12T14:58:36.228Z,23.37
2019-03-12T15:01:40.322Z,23.38
2019-03-12T15:04:44.102Z,23.42
2019-03-12T15:07:48.910Z,23.43
2019-03-12T15:10:52.598Z,23.44
2019-03-12T15:13:56.271Z,23.46
2019-03-12T15:17:00.159Z,23.50
2019-03-12T15:20:03.908Z,23.48
2019-03-12T15:23:08.856Z,23.49
2019-03-12T15:26:14.571Z,23.53
2019-03-12T15:29:18.397Z,23.52
2019-03-12T15:32:22.043Z,23.53
2019-03-12T15:35:27.816Z,23.51
2019-03-12T15:38:31.716Z,23.54
2019-03-12T15:41:36.442Z,23.51
2019-03-12T15:44:41.080Z,23.53
2019-03-12T15:47:44.804Z,23.52
2019-03-12T15:50:48.416Z,23.52
2019-03-12T15:53:53.199Z,23.53
2019-03-12T15:56:56.622Z,23.52
2019-03-12T16:00:00.512Z,23.52
2019-03-12T16:03:05.145Z,23.49
2019-03-12T16:06:09.094Z,23.48
2019-03-12T16:09:12.775Z,23.48
2019-03-12T16:12:16.338Z,23.46
2019-03-12T16:15:20.106Z,23.45
2019-03-12T16:18:24.796Z,23.43
2019-03-12T16:21:28.446Z,23.44
2019-03-12T16:24:32.183Z,23.42
2019-03-12T16:27:37.702Z,23.42
2019-03-12T16:30:41.385Z,23.39
2019-03-12T16:33:45.177Z,23.37
2019-03-12T16:36:49.209Z,23.36
2019-03-12T16:39:52.960Z,23.35
2019-03-12T16:42:57.853Z,23.34
2019-03-12T16:46:03.656Z,23.32
2019-03-12T16:49:07.388Z,23.31
2019-03-12T16:52:11.033Z,23.30
2019-03-12T16:55:14.858Z,23.30
2019-03-12T16:58:18.553Z,23.29
2019-03-12T17:01:22.198Z,23.28
2019-03-12T17:04:25.843Z,23.27
2019-03-12T17:07:29.472Z,23.27
2019-03-12T17:10:33.057Z,23.25
2019-03-12T17:13:36.692Z,23.23
2019-03-12T17:16:40.452Z,23.22
2019-03-12T17:19:44.184Z,23.20
2019-03-12T17:22:47.770Z,23.19
2019-03-12T17:25:53.499Z,23.20
2019-03-12T17:28:58.161Z,23.18
2019-03-12T17:32:01.756Z,23.18
2019-03-12T17:35:07.602Z,23.18
2019-03-12T17:38:11.523Z,23.18
2019-03-12T17:41:17.465Z,23.18
2019-03-12T17:44:21.211Z,23.17
2019-03-12T17:47:24.825Z,23.18
2019-03-12T17:50:28.427Z,23.18
2019-03-12T17:53:32.221Z,23.16
2019-03-12T17:56:35.851Z,23.17
2019-03-12T17:59:39.584Z,23.17
2019-03-12T18:02:43.251Z,23.18
2019-03-12T18:05:46.868Z,23.16
2019-03-12T18:08:50.534Z,23.14
2019-03-12T18:11:54.078Z,23.14
2019-03-12T18:14:59.002Z,23.13
2019-03-12T18:18:02.722Z,23.13
2019-03-12T18:21:08.304Z,23.11
2019-03-12T18:24:11.909Z,23.11
2019-03-12T18:27:17.479Z,23.11
2019-03-12T18:30:21.082Z,23.10
2019-03-12T18:33:24.619Z,23.09
2019-03-12T18:36:29.309Z,23.09
2019-03-12T18:39:33.034Z,23.08
2019-03-12T18:42:36.562Z,23.08
2019-03-12T18:45:42.280Z,23.08
2019-03-12T18:48:45.958Z,23.08
2019-03-12T18:51:51.518Z,23.08
2019-03-12T18:54:55.047Z,23.06
2019-03-12T18:57:58.996Z,23.05
2019-03-12T19:01:13.311Z,23.07
2019-03-12T19:04:17.035Z,23.04
2019-03-12T19:07:20.589Z,23.07
2019-03-12T19:10:25.258Z,23.06
2019-03-12T19:13:28.980Z,23.05
2019-03-12T19:16:32.613Z,23.04
2019-03-12T19:19:36.511Z,23.04
2019-03-12T19:22:40.091Z,23.04
2019-03-12T19:25:49.872Z,23.04
2019-03-12T19:28:53.740Z,23.03
2019-03-12T19:32:16.346Z,23.02
2019-03-12T19:35:20.345Z,23.03
2019-03-12T19:38:23.975Z,23.03
2019-03-12T19:41:27.736Z,23.04
2019-03-12T19:44:31.360Z,23.04
2019-03-12T19:47:36.151Z,23.03
2019-03-12T19:50:39.726Z,23.03
2019-03-12T19:53:43.325Z,23.02
2019-03-12T19:56:47.015Z,23.02
2019-03-12T19:59:50.631Z,23.04
2019-03-12T20:03:09.530Z,23.02
2019-03-12T20:06:04.117Z,23.04
2019-03-12T20:09:09.652Z,23.03
2019-03-12T20:12:55.002Z,23.01
2019-03-12T20:16:38.213Z,23.01
2019-03-12T20:20:22.367Z,23.02
2019-03-12T20:24:12.172Z,23.01
2019-03-12T20:28:01.562Z,23.03
2019-03-12T20:31:45.726Z,23.05
2019-03-12T20:35:27.094Z,23.03
2019-03-12T20:39:13.121Z,23.02
2019-03-12T20:42:55.241Z,23.00
2019-03-12T20:46:35.226Z,23.01
2019-03-12T20:50:16.528Z,22.98
2019-03-12T20:54:07.049Z,22.98
2019-03-12T20:57:51.146Z,22.97
2019-03-12T21:01:21.946Z,22.96
2019-03-12T21:04:53.640Z,22.95
2019-03-12T21:08:33.648Z,22.93
2019-03-12T21:12:12.846Z,22.91
2019-03-12T21:16:01.871Z,22.90
2019-03-12T21:19:45.392Z,22.90
2019-03-12T21:23:26.365Z,22.90
2019-03-12T21:26:55.180Z,22.87
2019-03-12T21:29:57.563Z,22.86
2019-03-12T21:33:01.054Z,22.85
2019-03-12T21:36:07.997Z,22.85
2019-03-12T21:39:09.898Z,22.83
2019-03-12T21:42:13.337Z,22.81
2019-03-12T21:45:16.930Z,22.82
2019-03-12T21:48:20.403Z,22.81
2019-03-12T21:51:23.905Z,22.79
2019-03-12T21:54:27.369Z,22.79
2019-03-12T21:57:30.856Z,22.78
2019-03-12T22:00:34.302Z,22.78
2019-03-12T22:03:38.031Z,22.76
2019-03-12T22:06:41.508Z,22.75
2019-03-12T22:09:45.118Z,22.76
2019-03-12T22:12:48.635Z,22.74
2019-03-12T22:15:52.125Z,22.73
2019-03-12T22:18:56.639Z,22.74
2019-03-12T22:22:13.090Z,22.72
2019-03-12T22:25:16.663Z,22.70
2019-03-12T22:28:20.273Z,22.71
2019-03-12T22:31:23.744Z,22.69
2019-03-12T22:34:30.054Z,22.68
2019-03-12T22:37:32.608Z,22.67
2019-03-12T22:40:36.334Z,22.65
2019-03-12T22:43:39.827Z,22.64
2019-03-12T22:46:43.306Z,22.66
2019-03-12T22:49:46.800Z,22.66
2019-03-12T22:52:50.305Z,22.63
2019-03-12T22:55:53.811Z,22.63
2019-03-12T22:58:59.360Z,22.65
2019-03-12T23:02:04.912Z,22.61
2019-03-12T23:05:08.825Z,22.64
2019-03-12T23:08:13.338Z,22.61
2019-03-12T23:11:17.888Z,22.61
2019-03-12T23:14:21.318Z,22.61
2019-03-12T23:17:24.889Z,22.58
2019-03-12T23:20:28.317Z,22.59
2019-03-12T23:23:31.770Z,22.58
2019-03-12T23:26:35.368Z,22.58
2019-03-12T23:29:39.900Z,22.56
2019-03-12T23:32:43.395Z,22.56
2019-03-12T23:35:46.901Z,22.56
2019-03-12T23:38:51.456Z,22.55
2019-03-12T23:41:54.925Z,22.55
2019-03-12T23:45:00.489Z,22.54
2019-03-12T23:48:06.015Z,22.53
2019-03-12T23:51:09.516Z,22.53
2019-03-12T23:54:12.946Z,22.52
2019-03-12T23:57:16.565Z,22.51
